Terminal Aerodrome Forecast
Issued by NWS Tampa Bay Area, FL

Home | Current Version | Previous Version | Text Only | Print | Product List | Glossary On
Versions: 1 2 3 4 5 6 7 8 9 10 11 12 13 14 15 16 17 18 19 20 21 22 23 24
000
FTUS42 KTBW 202300
TAFTPA
TAF
KTPA 202333Z 2100/2124 26005KT P6SM SCT035 BKN250
     FM210300 VRB03KT P6SM SCT050 BKN150
     FM211400 17005KT P6SM FEW070 SCT150
     FM212000 25007KT P6SM SCT035 BKN150=

USA.gov is the U.S. government's official web portal to all federal, state and local government web resources and services.